createdAt,value
2019-01-19T00:02:51.819Z,-3.97
2019-01-19T00:05:52.167Z,-3.99
2019-01-19T00:08:53.470Z,-3.96
2019-01-19T00:11:58.736Z,-3.77
2019-01-19T00:15:07.790Z,-3.73
2019-01-19T00:18:31.419Z,-3.73
2019-01-19T00:21:33.407Z,-3.75
2019-01-19T00:24:48.102Z,-3.78
2019-01-19T00:28:00.244Z,-3.80
2019-01-19T00:30:43.790Z,-3.81
2019-01-19T00:34:03.266Z,-3.81
2019-01-19T00:37:11.589Z,-3.79
2019-01-19T00:40:31.075Z,-3.74
2019-01-19T00:43:19.550Z,-3.67
2019-01-19T00:46:30.229Z,-3.69
2019-01-19T00:49:29.792Z,-3.72
2019-01-19T00:52:27.873Z,-3.71
2019-01-19T00:55:29.281Z,-3.72
2019-01-19T00:58:28.882Z,-3.72
2019-01-19T01:01:25.188Z,-3.74
2019-01-19T01:04:25.487Z,-3.69
2019-01-19T01:07:45.869Z,-3.58
2019-01-19T01:10:42.539Z,-3.48
2019-01-19T01:13:43.067Z,-3.40
2019-01-19T01:16:53.130Z,-3.36
2019-01-19T01:19:45.233Z,-3.44
2019-01-19T01:22:55.318Z,-3.55
2019-01-19T01:25:49.468Z,-3.61
2019-01-19T01:28:55.197Z,-3.66
2019-01-19T01:32:06.321Z,-3.68
2019-01-19T01:35:32.669Z,-3.69
2019-01-19T01:38:24.074Z,-3.76
2019-01-19T01:41:56.410Z,-3.83
2019-01-19T01:44:45.075Z,-3.88
2019-01-19T01:47:54.996Z,-3.86
2019-01-19T01:50:43.089Z,-3.81
2019-01-19T01:54:06.480Z,-3.84
2019-01-19T01:56:36.690Z,-3.85
2019-01-19T01:59:38.262Z,-3.83
2019-01-19T02:02:57.864Z,-3.80
2019-01-19T02:06:06.251Z,-3.78
2019-01-19T02:08:54.866Z,-3.78
2019-01-19T02:11:56.484Z,-3.75
2019-01-19T02:15:14.320Z,-3.71
2019-01-19T02:18:19.559Z,-3.79
2019-01-19T02:21:31.997Z,-3.88
2019-01-19T02:24:30.013Z,-3.94
2019-01-19T02:27:37.194Z,-4.05
2019-01-19T02:30:31.251Z,-4.16
2019-01-19T02:33:55.890Z,-4.22
2019-01-19T02:37:05.452Z,-4.28
2019-01-19T02:40:07.306Z,-4.40
2019-01-19T02:42:59.519Z,-4.44
2019-01-19T02:46:16.896Z,-4.51
2019-01-19T02:49:19.837Z,-4.58
2019-01-19T02:52:29.774Z,-4.61
2019-01-19T02:55:39.370Z,-4.61
2019-01-19T02:58:36.862Z,-4.65
2019-01-19T03:01:46.102Z,-4.71
2019-01-19T03:04:58.929Z,-4.71
2019-01-19T03:08:16.935Z,-4.66
2019-01-19T03:11:25.471Z,-4.71
2019-01-19T03:14:42.790Z,-4.75
2019-01-19T03:20:07.926Z,-4.93
2019-01-19T03:23:06.517Z,-4.87
2019-01-19T03:26:12.451Z,-4.84
2019-01-19T03:29:16.411Z,-4.79
2019-01-19T03:32:19.399Z,-4.68
2019-01-19T03:35:37.297Z,-4.77
2019-01-19T03:39:02.018Z,-4.76
2019-01-19T03:42:20.143Z,-4.62
2019-01-19T03:45:21.419Z,-4.43
2019-01-19T03:48:39.030Z,-4.49
2019-01-19T03:51:37.951Z,-4.61
2019-01-19T03:54:45.857Z,-4.57
2019-01-19T03:57:41.755Z,-4.65
2019-01-19T04:01:08.408Z,-4.75
2019-01-19T04:04:07.384Z,-4.63
2019-01-19T04:06:55.147Z,-4.57
2019-01-19T04:09:47.196Z,-4.62
2019-01-19T04:12:55.872Z,-4.63
2019-01-19T04:16:07.518Z,-4.59
2019-01-19T04:19:15.841Z,-4.50
2019-01-19T04:22:13.103Z,-4.44
2019-01-19T04:24:50.679Z,-4.23
2019-01-19T04:27:21.536Z,-4.29
2019-01-19T04:29:52.098Z,-4.34
2019-01-19T04:32:22.669Z,-4.20
2019-01-19T04:34:52.886Z,-4.22
2019-01-19T04:37:23.073Z,-4.22
2019-01-19T04:39:53.602Z,-4.18
2019-01-19T04:42:24.268Z,-4.21
2019-01-19T04:44:54.480Z,-4.28
2019-01-19T04:47:25.410Z,-4.29
2019-01-19T04:49:55.700Z,-4.36
2019-01-19T04:52:26.249Z,-4.44
2019-01-19T04:54:56.784Z,-4.47
2019-01-19T04:57:27.618Z,-4.53
2019-01-19T04:59:58.131Z,-4.62
2019-01-19T05:02:28.353Z,-4.58
2019-01-19T05:04:58.922Z,-4.58
2019-01-19T05:07:29.160Z,-4.62
2019-01-19T05:09:59.956Z,-4.64
2019-01-19T05:12:30.454Z,-4.62
2019-01-19T05:15:01.079Z,-4.51
2019-01-19T05:17:31.559Z,-4.59
2019-01-19T05:20:02.073Z,-4.68
2019-01-19T05:22:32.283Z,-4.75
2019-01-19T05:25:02.478Z,-4.83
2019-01-19T05:27:33.358Z,-4.82
2019-01-19T05:30:03.616Z,-4.88
2019-01-19T05:32:34.522Z,-4.70
2019-01-19T05:35:04.973Z,-4.54
2019-01-19T05:37:35.590Z,-4.72
2019-01-19T05:40:07.353Z,-4.84
2019-01-19T05:42:37.597Z,-4.89
2019-01-19T05:45:09.665Z,-4.88
2019-01-19T05:47:40.179Z,-4.89
2019-01-19T05:50:19.258Z,-4.91
2019-01-19T05:52:49.685Z,-4.87
2019-01-19T05:55:19.880Z,-4.88
2019-01-19T05:57:50.097Z,-4.82
2019-01-19T06:00:31.016Z,-4.87
2019-01-19T06:03:01.560Z,-4.94
2019-01-19T06:05:32.083Z,-4.96
2019-01-19T06:08:02.759Z,-4.90
2019-01-19T06:10:33.062Z,-4.89
2019-01-19T06:13:03.279Z,-4.90
2019-01-19T06:15:33.473Z,-4.85
2019-01-19T06:18:03.697Z,-5.02
2019-01-19T06:20:34.190Z,-5.06
2019-01-19T06:23:04.501Z,-5.16
2019-01-19T06:25:35.988Z,-5.20
2019-01-19T06:28:06.231Z,-5.26
2019-01-19T06:30:36.513Z,-5.29
2019-01-19T06:33:07.097Z,-5.35
2019-01-19T06:35:37.937Z,-5.30
2019-01-19T06:38:08.456Z,-5.39
2019-01-19T06:40:38.991Z,-5.39
2019-01-19T06:43:09.625Z,-5.40
2019-01-19T06:45:39.883Z,-5.40
2019-01-19T06:48:10.113Z,-5.45
2019-01-19T06:50:40.666Z,-5.46
2019-01-19T06:53:10.892Z,-5.26
2019-01-19T06:55:41.081Z,-5.17
2019-01-19T06:58:11.352Z,-5.16
2019-01-19T07:00:41.890Z,-5.13
2019-01-19T07:03:13.563Z,-5.08
2019-01-19T07:05:44.452Z,-5.08
2019-01-19T07:08:15.020Z,-5.13
2019-01-19T07:10:45.287Z,-5.06
2019-01-19T07:13:16.178Z,-5.15
2019-01-19T07:15:46.784Z,-5.13
2019-01-19T07:18:17.371Z,-5.12
2019-01-19T07:20:47.879Z,-5.17
2019-01-19T07:23:18.390Z,-5.17
2019-01-19T07:25:48.908Z,-5.07
2019-01-19T07:28:19.171Z,-5.09
2019-01-19T07:30:49.391Z,-5.10
2019-01-19T07:33:19.635Z,-5.11
2019-01-19T07:35:49.842Z,-5.17
2019-01-19T07:38:21.034Z,-5.19
2019-01-19T07:40:51.240Z,-5.22
2019-01-19T07:43:22.408Z,-5.16
2019-01-19T07:45:52.852Z,-5.01
2019-01-19T07:48:24.286Z,-4.89
2019-01-19T07:50:54.959Z,-4.85
2019-01-19T07:53:25.430Z,-4.79
2019-01-19T07:55:57.255Z,-4.75
2019-01-19T07:58:27.664Z,-4.68
2019-01-19T08:00:58.960Z,-4.67
2019-01-19T08:03:29.765Z,-4.63
2019-01-19T08:06:00.096Z,-4.56
2019-01-19T08:08:31.837Z,-4.57
2019-01-19T08:11:03.724Z,-4.58
2019-01-19T08:13:34.101Z,-4.49
2019-01-19T08:16:04.594Z,-4.43
2019-01-19T08:18:35.764Z,-4.31
2019-01-19T08:21:06.141Z,-4.25
2019-01-19T08:23:36.641Z,-4.18
2019-01-19T08:26:07.394Z,-3.94
2019-01-19T08:28:38.112Z,-3.75
2019-01-19T08:31:08.487Z,-3.68
2019-01-19T08:33:38.895Z,-3.63
2019-01-19T08:36:11.031Z,-3.56
2019-01-19T08:38:41.882Z,-3.47
2019-01-19T08:41:12.913Z,-3.40
2019-01-19T08:43:56.360Z,-3.29
2019-01-19T08:46:26.761Z,-3.20
2019-01-19T08:48:58.519Z,-3.09
2019-01-19T08:51:28.865Z,-2.97
2019-01-19T08:53:59.632Z,-2.83
2019-01-19T08:56:30.344Z,-2.71
2019-01-19T08:59:01.129Z,-2.60
2019-01-19T09:01:31.899Z,-2.50
2019-01-19T09:04:02.671Z,-2.45
2019-01-19T09:06:33.928Z,-2.38
2019-01-19T09:09:06.659Z,-2.31
2019-01-19T09:11:37.413Z,-2.26
2019-01-19T09:14:08.416Z,-2.16
2019-01-19T09:16:40.580Z,-2.10
2019-01-19T09:19:15.218Z,-2.02
2019-01-19T09:21:49.725Z,-1.89
2019-01-19T09:24:25.208Z,-1.79
2019-01-19T09:26:56.374Z,-1.70
2019-01-19T09:29:27.281Z,-1.55
2019-01-19T09:31:57.956Z,-1.42
2019-01-19T09:34:28.549Z,-1.28
2019-01-19T09:36:58.833Z,-1.17
2019-01-19T09:39:29.205Z,-1.02
2019-01-19T09:41:59.841Z,-0.94
2019-01-19T09:44:30.232Z,-0.84
2019-01-19T09:47:00.515Z,-0.69
2019-01-19T09:49:31.103Z,-0.60
2019-01-19T09:52:01.658Z,-0.50
2019-01-19T09:54:32.364Z,-0.42
2019-01-19T09:57:02.731Z,-0.23
2019-01-19T09:59:33.031Z,0.30
2019-01-19T10:02:03.314Z,1.00
2019-01-19T10:04:33.871Z,2.01
2019-01-19T10:07:05.023Z,2.67
2019-01-19T10:09:36.400Z,3.46
2019-01-19T10:12:07.000Z,3.78
2019-01-19T10:14:37.572Z,4.67
2019-01-19T10:17:07.848Z,5.05
2019-01-19T10:19:38.751Z,5.36
2019-01-19T10:22:09.843Z,5.73
2019-01-19T10:24:40.029Z,5.83
2019-01-19T10:27:10.577Z,6.21
2019-01-19T10:29:40.843Z,6.60
2019-01-19T10:32:11.091Z,6.93
2019-01-19T10:34:42.395Z,6.33
2019-01-19T10:37:12.690Z,5.92
2019-01-19T10:39:43.354Z,5.35
2019-01-19T10:42:15.890Z,4.64
2019-01-19T10:44:47.270Z,3.78
2019-01-19T10:47:17.548Z,3.46
2019-01-19T10:49:48.252Z,2.95
2019-01-19T10:52:18.565Z,2.74
2019-01-19T10:54:49.321Z,2.58
2019-01-19T10:57:19.906Z,2.42
2019-01-19T10:59:50.133Z,2.39
2019-01-19T11:02:20.398Z,2.50
2019-01-19T11:04:50.975Z,2.46
2019-01-19T11:07:22.856Z,2.48
2019-01-19T11:09:53.427Z,2.54
2019-01-19T11:12:24.158Z,2.66
2019-01-19T11:14:55.061Z,2.78
2019-01-19T11:17:25.977Z,2.98
2019-01-19T11:19:56.291Z,3.09
2019-01-19T11:22:26.848Z,3.14
2019-01-19T11:24:57.328Z,3.31
2019-01-19T11:27:27.941Z,4.31
2019-01-19T11:29:58.270Z,6.00
2019-01-19T11:32:28.550Z,7.57
2019-01-19T11:34:59.512Z,8.56
2019-01-19T11:37:29.754Z,9.35
2019-01-19T11:39:59.988Z,10.46
2019-01-19T11:42:33.020Z,11.25
2019-01-19T11:45:03.626Z,12.01
2019-01-19T11:47:33.859Z,12.89
2019-01-19T11:50:04.769Z,11.85
2019-01-19T11:52:35.253Z,12.89
2019-01-19T11:55:08.228Z,12.74
2019-01-19T11:57:39.195Z,13.61
2019-01-19T12:00:17.196Z,13.44
2019-01-19T12:02:47.530Z,14.33
2019-01-19T12:05:17.852Z,15.29
2019-01-19T12:07:48.762Z,14.64
2019-01-19T12:10:21.338Z,13.61
2019-01-19T12:12:52.041Z,15.29
2019-01-19T12:15:23.360Z,15.08
2019-01-19T12:17:53.707Z,15.40
2019-01-19T12:20:29.847Z,15.85
2019-01-19T12:23:00.568Z,16.87
2019-01-19T12:25:31.400Z,16.45
2019-01-19T12:28:01.619Z,16.89
2019-01-19T12:30:32.374Z,16.05
2019-01-19T12:33:03.215Z,15.77
2019-01-19T12:35:33.517Z,15.84
2019-01-19T12:38:04.660Z,16.13
2019-01-19T12:40:35.130Z,15.65
2019-01-19T12:43:13.083Z,16.15
2019-01-19T12:45:46.198Z,16.09
2019-01-19T12:48:16.533Z,16.25
2019-01-19T12:50:47.225Z,13.76
2019-01-19T12:53:17.995Z,13.70
2019-01-19T12:55:48.225Z,13.21
2019-01-19T12:58:18.508Z,14.84
2019-01-19T13:00:48.699Z,16.45
2019-01-19T13:03:19.465Z,16.60
2019-01-19T13:06:04.583Z,17.33
2019-01-19T13:08:35.069Z,17.31
2019-01-19T13:11:58.867Z,17.76
2019-01-19T13:14:30.119Z,16.21
2019-01-19T13:17:27.657Z,17.25
2019-01-19T13:20:47.243Z,18.70
2019-01-19T13:23:45.176Z,17.56
2019-01-19T13:27:15.034Z,18.12
2019-01-19T13:30:24.956Z,18.80
2019-01-19T13:33:23.627Z,17.31
2019-01-19T13:36:22.349Z,18.28
2019-01-19T13:39:35.381Z,18.76
2019-01-19T13:42:42.394Z,18.52
2019-01-19T13:45:43.403Z,17.80
2019-01-19T13:49:00.694Z,17.64
2019-01-19T13:52:23.769Z,18.16
2019-01-19T13:55:23.647Z,18.75
2019-01-19T13:58:10.223Z,19.27
2019-01-19T14:01:14.257Z,19.69
2019-01-19T14:03:56.181Z,19.17
2019-01-19T14:06:59.499Z,19.68
2019-01-19T14:10:13.188Z,20.58
2019-01-19T14:13:14.688Z,20.67
2019-01-19T14:16:07.102Z,19.64
2019-01-19T14:19:10.328Z,20.65
2019-01-19T14:22:07.123Z,19.38
2019-01-19T14:24:56.580Z,20.41
2019-01-19T14:28:04.878Z,19.48
2019-01-19T14:30:58.153Z,19.23
2019-01-19T14:34:05.608Z,19.87
2019-01-19T14:37:09.361Z,19.79
2019-01-19T14:39:57.833Z,19.35
2019-01-19T14:42:47.788Z,19.09
2019-01-19T14:46:07.277Z,18.56
2019-01-19T14:49:08.422Z,18.71
2019-01-19T14:51:56.134Z,17.78
2019-01-19T14:54:58.064Z,17.16
2019-01-19T14:58:00.854Z,14.72
2019-01-19T15:00:55.412Z,13.44
2019-01-19T15:03:36.046Z,12.50
2019-01-19T15:06:39.366Z,10.77
2019-01-19T15:09:24.796Z,9.26
2019-01-19T15:12:47.857Z,7.62
2019-01-19T15:15:50.164Z,6.19
2019-01-19T15:19:01.458Z,5.18
2019-01-19T15:21:56.163Z,4.87
2019-01-19T15:24:52.112Z,4.53
2019-01-19T15:27:50.905Z,4.22
2019-01-19T15:30:47.157Z,3.93
2019-01-19T15:33:58.064Z,3.55
2019-01-19T15:37:00.708Z,3.34
2019-01-19T15:40:06.361Z,2.93
2019-01-19T15:42:50.232Z,2.74
2019-01-19T15:45:56.439Z,2.50
2019-01-19T15:48:53.106Z,2.26
2019-01-19T15:52:17.265Z,2.09
2019-01-19T15:55:20.280Z,1.92
2019-01-19T15:58:24.547Z,1.69
2019-01-19T16:01:41.735Z,1.55
2019-01-19T16:04:53.902Z,1.49
2019-01-19T16:08:02.112Z,1.34
2019-01-19T16:11:04.305Z,1.28
2019-01-19T16:13:53.993Z,1.23
2019-01-19T16:16:57.074Z,1.17
2019-01-19T16:20:04.242Z,1.13
2019-01-19T16:22:49.617Z,1.15
2019-01-19T16:26:10.205Z,1.05
2019-01-19T16:29:28.167Z,0.93
2019-01-19T16:32:47.959Z,0.88
2019-01-19T16:35:31.376Z,0.81
2019-01-19T16:38:47.529Z,0.75
2019-01-19T16:41:59.278Z,0.79
2019-01-19T16:45:09.717Z,0.57
2019-01-19T16:48:21.148Z,0.60
2019-01-19T16:51:41.579Z,0.63
2019-01-19T16:54:37.118Z,0.70
2019-01-19T16:57:54.785Z,0.67
2019-01-19T17:00:59.515Z,0.65
2019-01-19T17:04:02.699Z,0.52
2019-01-19T17:07:06.958Z,0.51
2019-01-19T17:10:02.992Z,0.53
2019-01-19T17:13:21.105Z,0.50
2019-01-19T17:16:40.474Z,0.35
2019-01-19T17:19:35.810Z,0.15
2019-01-19T17:22:41.360Z,0.33
2019-01-19T17:25:44.601Z,0.16
2019-01-19T17:28:54.806Z,0.23
2019-01-19T17:31:57.518Z,0.24
2019-01-19T17:35:13.266Z,0.14
2019-01-19T17:38:14.846Z,0.15
2019-01-19T17:41:34.930Z,0.06
2019-01-19T17:44:44.768Z,-0.02
2019-01-19T17:47:26.298Z,0.07
2019-01-19T17:50:51.554Z,0.02
2019-01-19T17:54:13.307Z,0.01
2019-01-19T17:57:08.209Z,0.09
2019-01-19T18:00:10.350Z,0.07
2019-01-19T18:03:28.029Z,0.03
2019-01-19T18:06:20.378Z,0.02
2019-01-19T18:09:47.589Z,0.01
2019-01-19T18:12:36.639Z,-0.09
2019-01-19T18:16:07.311Z,-0.06
2019-01-19T18:19:16.097Z,-0.08
2019-01-19T18:22:35.853Z,-0.07
2019-01-19T18:25:28.373Z,-0.09
2019-01-19T18:28:37.918Z,-0.17
2019-01-19T18:32:04.409Z,-0.16
2019-01-19T18:35:16.423Z,-0.11
2019-01-19T18:38:36.693Z,-0.24
2019-01-19T18:41:50.916Z,-0.27
2019-01-19T18:45:01.845Z,-0.27
2019-01-19T18:48:03.532Z,-0.27
2019-01-19T18:51:04.624Z,-0.27
2019-01-19T18:54:21.581Z,-0.25
2019-01-19T18:57:34.771Z,-0.22
2019-01-19T19:00:38.312Z,-0.26
2019-01-19T19:03:52.543Z,-0.27
2019-01-19T19:07:19.273Z,-0.34
2019-01-19T19:10:02.086Z,-0.38
2019-01-19T19:12:59.420Z,-0.32
2019-01-19T19:15:57.979Z,-0.28
2019-01-19T19:19:00.293Z,-0.27
2019-01-19T19:21:47.787Z,-0.21
2019-01-19T19:24:55.104Z,-0.29
2019-01-19T19:27:51.038Z,-0.37
2019-01-19T19:31:27.195Z,-0.35
2019-01-19T19:34:10.559Z,-0.33
2019-01-19T19:36:51.770Z,-0.42
2019-01-19T19:39:59.274Z,-0.36
2019-01-19T19:42:55.517Z,-0.34
2019-01-19T19:46:07.339Z,-0.52
2019-01-19T19:49:26.708Z,-0.48
2019-01-19T19:51:55.885Z,-0.53
2019-01-19T19:54:27.127Z,-0.56
2019-01-19T19:56:59.320Z,-0.64
2019-01-19T19:59:30.043Z,-0.59
2019-01-19T20:02:00.698Z,-0.58
2019-01-19T20:04:31.203Z,-0.59
2019-01-19T20:07:01.957Z,-0.66
2019-01-19T20:09:33.019Z,-0.66
2019-01-19T20:12:09.927Z,-0.74
2019-01-19T20:14:40.331Z,-0.73
2019-01-19T20:17:11.054Z,-0.81
2019-01-19T20:19:41.401Z,-0.77
2019-01-19T20:22:12.033Z,-0.75
2019-01-19T20:24:43.262Z,-0.84
2019-01-19T20:27:14.873Z,-0.83
2019-01-19T20:29:45.732Z,-0.81
2019-01-19T20:32:16.879Z,-0.81
2019-01-19T20:34:47.235Z,-0.69
2019-01-19T20:37:18.262Z,-0.67
2019-01-19T20:39:48.485Z,-0.74
2019-01-19T20:42:19.160Z,-0.76
2019-01-19T20:44:49.409Z,-0.66
2019-01-19T20:47:20.032Z,-0.79
2019-01-19T20:49:50.532Z,-0.82
2019-01-19T20:52:21.013Z,-0.81
2019-01-19T20:54:52.047Z,-0.80
2019-01-19T20:57:22.799Z,-0.81
2019-01-19T20:59:53.339Z,-0.92
2019-01-19T21:02:23.621Z,-0.90
2019-01-19T21:04:53.844Z,-0.81
2019-01-19T21:07:24.390Z,-0.85
2019-01-19T21:09:55.170Z,-0.92
2019-01-19T21:12:25.764Z,-1.03
2019-01-19T21:14:55.973Z,-1.06
2019-01-19T21:17:26.912Z,-1.15
2019-01-19T21:19:57.935Z,-1.22
2019-01-19T21:22:28.366Z,-1.29
2019-01-19T21:24:58.614Z,-1.26
2019-01-19T21:27:29.559Z,-1.26
2019-01-19T21:29:59.823Z,-1.34
2019-01-19T21:32:30.404Z,-1.26
2019-01-19T21:35:01.064Z,-1.23
2019-01-19T21:37:31.331Z,-1.36
2019-01-19T21:40:01.508Z,-1.40
2019-01-19T21:42:32.810Z,-1.35
2019-01-19T21:45:03.591Z,-1.27
2019-01-19T21:47:34.296Z,-1.28
2019-01-19T21:50:06.124Z,-1.33
2019-01-19T21:52:36.381Z,-1.40
2019-01-19T21:55:09.023Z,-1.42
2019-01-19T21:57:39.931Z,-1.34
2019-01-19T22:00:13.773Z,-1.30
2019-01-19T22:02:44.067Z,-1.30
2019-01-19T22:05:15.077Z,-1.28
2019-01-19T22:07:46.086Z,-1.38
2019-01-19T22:10:18.035Z,-1.26
2019-01-19T22:12:48.775Z,-1.14
2019-01-19T22:15:19.650Z,-1.16
2019-01-19T22:17:50.161Z,-1.16
2019-01-19T22:20:21.119Z,-1.08
2019-01-19T22:22:51.731Z,-1.01
2019-01-19T22:25:22.521Z,-1.06
2019-01-19T22:27:53.120Z,-1.06
2019-01-19T22:30:25.066Z,-1.05
2019-01-19T22:32:56.911Z,-1.13
2019-01-19T22:35:30.804Z,-1.16
2019-01-19T22:38:01.385Z,-1.22
2019-01-19T22:40:31.942Z,-1.25
2019-01-19T22:43:05.525Z,-1.24
2019-01-19T22:45:36.245Z,-1.15
2019-01-19T22:48:08.218Z,-1.19
2019-01-19T22:50:38.677Z,-1.34
2019-01-19T22:53:09.304Z,-1.45
2019-01-19T22:55:39.845Z,-1.50
2019-01-19T22:58:10.423Z,-1.42
2019-01-19T23:01:08.192Z,-1.47
2019-01-19T23:03:41.107Z,-1.29
2019-01-19T23:06:11.372Z,-1.39
2019-01-19T23:08:41.868Z,-1.46
2019-01-19T23:11:12.143Z,-1.44
2019-01-19T23:13:42.717Z,-1.43
2019-01-19T23:16:13.807Z,-1.48
2019-01-19T23:18:44.657Z,-1.52
2019-01-19T23:21:15.813Z,-1.40
2019-01-19T23:23:46.512Z,-1.35
2019-01-19T23:26:17.115Z,-1.33
2019-01-19T23:28:47.593Z,-1.34
2019-01-19T23:31:17.864Z,-1.32
2019-01-19T23:33:48.462Z,-1.28
2019-01-19T23:36:19.013Z,-1.22
2019-01-19T23:38:49.930Z,-1.19
2019-01-19T23:41:20.520Z,-1.25
2019-01-19T23:43:51.089Z,-1.30
2019-01-19T23:46:22.266Z,-1.25
2019-01-19T23:48:53.483Z,-1.17
2019-01-19T23:51:24.315Z,-1.22
2019-01-19T23:53:54.847Z,-1.26
2019-01-19T23:56:25.108Z,-1.30
2019-01-19T23:58:56.934Z,-1.34
